Time;durP1;ratioP1;P1;durP2;ratioP2;P2;SDS_P1;SDS_P2;PMS_P1;PMS_P2;Temp;Humidity;BMP_temperature;BMP_pressure;BME280_temperature;BME280_humidity;BME280_pressure;Samples;Min_cycle;Max_cycle;Signal;HPM_P1;HPM_P2
2023/08/24 00:01:02;;;;;;;;;10.00;7.00;;;;;26.45;50.19;100839.53;5086832;27;45824;-72
2023/08/24 00:03:28;;;;;;;;;6.25;5.00;;;;;26.45;50.30;100844.91;5092663;27;45349;-72
2023/08/24 00:05:53;;;;;;;;;7.00;4.75;;;;;26.44;50.18;100840.53;5089781;27;45473;-72
2023/08/24 00:08:19;;;;;;;;;8.25;5.75;;;;;26.44;50.28;100839.69;5094207;27;45255;-73
2023/08/24 00:10:47;;;;;;;;;7.25;7.00;;;;;26.44;50.23;100840.53;5081243;27;45288;-73
2023/08/24 00:13:13;;;;;;;;;5.75;5.50;;;;;26.44;50.56;100837.84;5095508;27;45383;-72
2023/08/24 00:15:39;;;;;;;;;11.25;6.50;;;;;26.44;50.27;100845.06;5096773;27;45409;-72
2023/08/24 00:18:05;;;;;;;;;8.00;6.75;;;;;26.43;50.06;100829.94;5090136;27;45504;-72
2023/08/24 00:20:32;;;;;;;;;8.25;7.25;;;;;26.39;50.61;100828.53;5086675;27;45764;-72
2023/08/24 00:22:58;;;;;;;;;10.00;8.00;;;;;26.40;50.43;100828.41;5094292;27;45549;-71
2023/08/24 00:25:23;;;;;;;;;6.50;5.25;;;;;26.37;50.77;100819.78;5084091;27;45428;-72
2023/08/24 00:27:49;;;;;;;;;7.00;5.50;;;;;26.35;50.84;100833.34;5081306;27;45513;-73
2023/08/24 00:30:15;;;;;;;;;10.00;7.50;;;;;26.34;51.21;100837.84;5093300;27;47070;-72
2023/08/24 00:32:40;;;;;;;;;8.50;5.75;;;;;26.29;50.81;100828.53;5081770;27;45325;-72
2023/08/24 00:35:06;;;;;;;;;8.75;6.25;;;;;26.29;51.31;100833.91;5092322;27;45310;-71
2023/08/24 00:37:32;;;;;;;;;10.50;9.00;;;;;26.25;50.86;100838.69;5097925;27;45583;-72
2023/08/24 00:40:08;;;;;;;;;7.50;6.75;;;;;26.24;51.51;100830.78;5083385;27;46511;-72
2023/08/24 00:42:36;;;;;;;;;6.25;5.25;;;;;26.22;50.62;100832.75;5078252;27;45419;-71
2023/08/24 00:45:02;;;;;;;;;10.25;7.00;;;;;26.19;51.82;100833.03;5078988;27;45431;-71
2023/08/24 00:47:28;;;;;;;;;8.50;7.50;;;;;26.17;51.00;100833.22;5067448;27;45552;-71
2023/08/24 00:49:53;;;;;;;;;4.75;4.75;;;;;26.14;51.27;100831.63;5093937;27;65300;-71
2023/08/24 00:52:18;;;;;;;;;6.25;5.50;;;;;26.13;51.87;100832.63;5094476;27;61032;-71
2023/08/24 00:54:44;;;;;;;;;7.25;6.00;;;;;26.14;51.08;100830.81;5091628;27;45544;-71
2023/08/24 00:57:10;;;;;;;;;6.50;6.50;;;;;26.10;51.46;100832.03;5095748;27;45272;-72
2023/08/24 00:59:35;;;;;;;;;9.50;6.75;;;;;26.08;51.61;100834.03;5090099;27;72784;-71
2023/08/24 01:02:02;;;;;;;;;6.75;5.25;;;;;26.07;51.28;100830.50;5092997;27;60938;-71
2023/08/24 01:04:27;;;;;;;;;9.75;8.00;;;;;26.03;51.64;100831.78;5085149;27;45310;-72
2023/08/24 01:06:52;;;;;;;;;8.75;6.25;;;;;25.99;51.58;100830.34;5086162;27;72996;-72
2023/08/24 01:09:19;;;;;;;;;7.50;6.00;;;;;25.95;52.03;100839.66;5080627;27;67839;-71
2023/08/24 01:12:00;;;;;;;;;7.50;5.50;;;;;25.91;52.33;100839.06;5071810;27;46027;-72
2023/08/24 01:14:43;;;;;;;;;8.00;6.00;;;;;25.90;52.59;100836.50;5085064;27;45448;-72
2023/08/24 01:17:12;;;;;;;;;7.50;5.25;;;;;25.87;52.03;100834.97;5093890;27;45889;-72
2023/08/24 01:19:40;;;;;;;;;7.00;7.00;;;;;25.85;52.29;100836.94;5095660;27;46240;-72
2023/08/24 01:22:28;;;;;;;;;5.50;5.50;;;;;25.82;52.63;100831.03;5087344;27;46936;-71
2023/08/24 01:25:01;;;;;;;;;7.75;6.75;;;;;25.75;53.08;100828.03;5089335;27;45564;-71
2023/08/24 01:27:28;;;;;;;;;9.00;7.50;;;;;25.73;53.06;100822.81;5085529;27;45477;-72
2023/08/24 01:29:56;;;;;;;;;8.25;8.00;;;;;25.72;52.99;100830.97;5097326;27;46217;-71
2023/08/24 01:32:22;;;;;;;;;9.50;7.50;;;;;25.68;53.21;100817.00;5088303;27;45692;-71
2023/08/24 01:34:47;;;;;;;;;7.50;6.25;;;;;25.63;53.67;100813.06;5092778;27;45428;-71
2023/08/24 01:37:13;;;;;;;;;8.25;7.50;;;;;25.59;53.63;100817.84;5092729;27;62615;-71
2023/08/24 01:39:43;;;;;;;;;8.00;6.75;;;;;25.56;53.82;100810.91;5082329;27;45347;-71
2023/08/24 01:42:11;;;;;;;;;7.25;6.50;;;;;25.53;53.91;100821.91;5093735;27;46037;-72
2023/08/24 01:44:39;;;;;;;;;6.00;5.50;;;;;25.46;54.30;100809.19;5083392;27;45663;-71
2023/08/24 01:47:05;;;;;;;;;7.00;7.00;;;;;25.40;54.63;100807.91;5097279;27;53189;-71
2023/08/24 01:49:31;;;;;;;;;6.50;6.50;;;;;25.33;54.86;100796.03;5084928;27;47410;-71
2023/08/24 01:51:58;;;;;;;;;8.25;6.00;;;;;25.33;55.01;100796.88;5083947;27;45493;-71
2023/08/24 01:54:23;;;;;;;;;10.00;8.00;;;;;25.34;55.10;100800.44;5092257;27;62698;-70
2023/08/24 01:56:48;;;;;;;;;8.00;7.50;;;;;25.36;54.70;100791.25;5087189;27;45453;-70
2023/08/24 01:59:14;;;;;;;;;9.75;8.00;;;;;25.35;55.18;100794.91;5093434;27;46148;-71
2023/08/24 02:01:39;;;;;;;;;7.00;5.75;;;;;25.37;54.67;100795.63;5089821;27;73169;-71
2023/08/24 02:04:04;;;;;;;;;10.00;7.00;;;;;25.37;55.42;100794.78;5086388;27;68279;-72
2023/08/24 02:06:30;;;;;;;;;8.25;6.00;;;;;25.38;54.56;100788.44;5085818;27;60061;-71
2023/08/24 02:08:55;;;;;;;;;8.00;8.00;;;;;25.38;55.08;100791.13;5089635;27;47029;-72
2023/08/24 02:11:20;;;;;;;;;7.25;7.00;;;;;25.32;55.14;100791.66;5094614;27;68093;-71
2023/08/24 02:13:46;;;;;;;;;11.00;7.75;;;;;25.30;55.27;100783.78;5085414;27;45603;-71
2023/08/24 02:16:12;;;;;;;;;6.50;6.50;;;;;25.28;55.26;100782.19;5090354;27;45375;-71
2023/08/24 02:18:37;;;;;;;;;9.00;7.25;;;;;25.25;55.67;100774.44;5087833;27;45461;-71
2023/08/24 02:21:11;;;;;;;;;10.00;8.25;;;;;25.23;55.90;100776.38;5082018;27;45591;-72
2023/08/24 02:23:37;;;;;;;;;7.75;7.50;;;;;25.18;55.77;100769.59;5087061;27;45385;-72
2023/08/24 02:26:03;;;;;;;;;7.75;7.00;;;;;25.12;55.68;100772.78;5085006;27;45578;-72
2023/08/24 02:28:28;;;;;;;;;8.00;8.00;;;;;25.12;55.83;100774.63;5091171;27;46152;-71
2023/08/24 02:30:53;;;;;;;;;8.25;6.75;;;;;25.07;56.40;100769.66;5084154;27;45327;-71
2023/08/24 02:33:19;;;;;;;;;8.75;7.25;;;;;25.00;56.32;100756.00;5084605;27;45544;-71
2023/08/24 02:35:47;;;;;;;;;7.00;6.00;;;;;24.98;56.85;100757.97;5081892;27;59863;-71
2023/08/24 02:38:12;;;;;;;;;8.00;7.00;;;;;24.98;56.54;100749.94;5090078;27;46337;-71
2023/08/24 02:40:38;;;;;;;;;8.75;7.00;;;;;24.97;57.14;100755.44;5090194;27;45640;-71
2023/08/24 02:43:03;;;;;;;;;8.25;6.50;;;;;24.96;56.71;100746.53;5094734;27;45282;-71
2023/08/24 02:45:28;;;;;;;;;7.75;6.75;;;;;24.95;57.11;100744.84;5095605;27;50090;-73
2023/08/24 02:47:54;;;;;;;;;7.25;7.25;;;;;24.93;57.06;100746.81;5084225;27;63403;-71
2023/08/24 02:50:19;;;;;;;;;13.00;9.00;;;;;24.91;57.06;100738.03;5093263;27;64333;-72
2023/08/24 02:52:45;;;;;;;;;8.50;7.50;;;;;24.92;57.17;100731.72;5094199;27;45262;-72
2023/08/24 02:55:11;;;;;;;;;7.25;6.25;;;;;24.93;56.88;100737.91;5078712;27;45346;-71
2023/08/24 02:57:36;;;;;;;;;7.00;7.00;;;;;24.90;56.90;100732.84;5087108;27;45329;-71
2023/08/24 03:00:03;;;;;;;;;7.00;5.50;;;;;24.90;56.91;100724.81;5086711;27;45296;-71
2023/08/24 03:02:29;;;;;;;;;8.00;6.75;;;;;24.88;56.90;100718.72;5092907;27;45674;-71
2023/08/24 03:04:55;;;;;;;;;8.50;7.75;;;;;24.87;56.98;100717.88;5088509;27;45400;-72
2023/08/24 03:07:20;;;;;;;;;9.75;8.50;;;;;24.87;57.60;100719.72;5095658;27;45463;-71
2023/08/24 03:09:46;;;;;;;;;8.25;7.50;;;;;24.87;57.07;100714.38;5086257;27;45479;-72
2023/08/24 03:12:12;;;;;;;;;8.25;6.75;;;;;24.85;56.75;100717.19;5082334;27;45384;-72
2023/08/24 03:14:37;;;;;;;;;9.50;8.00;;;;;24.82;57.52;100712.09;5080656;27;45434;-71
2023/08/24 03:17:04;;;;;;;;;11.25;7.50;;;;;24.81;57.13;100707.75;5084772;27;65462;-72
2023/08/24 03:19:30;;;;;;;;;8.00;7.00;;;;;24.82;56.83;100706.72;5087055;27;46939;-72
2023/08/24 03:21:55;;;;;;;;;8.00;8.00;;;;;24.79;57.31;100705.19;5066840;28;45382;-71
2023/08/24 03:24:20;;;;;;;;;10.75;7.25;;;;;24.79;57.09;100701.66;5106204;27;53727;-71
2023/08/24 03:26:45;;;;;;;;;9.50;8.50;;;;;24.79;57.31;100702.50;5096099;27;67710;-71
2023/08/24 03:29:11;;;;;;;;;11.50;8.25;;;;;24.79;57.28;100699.00;5083598;27;45298;-70
2023/08/24 03:31:36;;;;;;;;;7.50;7.00;;;;;24.77;57.37;100701.81;5092237;27;64391;-70
2023/08/24 03:34:03;;;;;;;;;7.00;6.00;;;;;24.76;57.09;100700.09;5092272;27;72038;-72
2023/08/24 03:36:29;;;;;;;;;12.50;8.50;;;;;24.77;57.48;100690.22;5087095;27;46345;-71
2023/08/24 03:38:54;;;;;;;;;10.00;9.75;;;;;24.78;57.30;100695.44;5099121;27;45278;-72
2023/08/24 03:41:20;;;;;;;;;12.75;8.25;;;;;24.80;57.22;100693.47;5087073;27;51976;-72
2023/08/24 03:43:45;;;;;;;;;10.00;8.00;;;;;24.79;57.26;100685.63;5085671;27;45258;-72
2023/08/24 03:46:10;;;;;;;;;10.75;9.00;;;;;24.72;57.08;100679.94;5088083;27;46332;-72
2023/08/24 03:48:36;;;;;;;;;13.75;11.00;;;;;24.73;56.90;100688.81;5093617;27;45762;-71
2023/08/24 03:51:01;;;;;;;;;11.50;7.75;;;;;24.71;57.08;100686.28;5080377;27;64371;-71
2023/08/24 03:53:26;;;;;;;;;8.00;8.00;;;;;24.68;57.29;100683.00;5092260;27;45219;-71
2023/08/24 03:55:52;;;;;;;;;10.00;9.00;;;;;24.69;57.14;100685.56;5097933;27;46153;-71
2023/08/24 03:58:18;;;;;;;;;9.00;8.50;;;;;24.69;57.44;100682.88;5098544;27;45429;-71
2023/08/24 04:00:44;;;;;;;;;11.00;8.00;;;;;24.73;57.19;100686.97;5085709;27;45332;-71
2023/08/24 04:03:10;;;;;;;;;11.00;7.00;;;;;24.73;57.13;100678.09;5092075;27;45724;-72
2023/08/24 04:05:35;;;;;;;;;8.00;7.50;;;;;24.72;56.73;100681.75;5087373;27;72135;-71
2023/08/24 04:08:00;;;;;;;;;10.00;8.50;;;;;24.75;56.83;100684.16;5085932;27;58062;-71
2023/08/24 04:10:26;;;;;;;;;13.00;10.00;;;;;24.74;56.87;100682.50;5082046;27;45409;-72
2023/08/24 04:12:52;;;;;;;;;14.00;8.25;;;;;24.75;56.82;100686.84;5086857;27;45676;-71
2023/08/24 04:15:17;;;;;;;;;8.00;6.50;;;;;24.77;56.59;100687.56;5086828;27;47178;-71
2023/08/24 04:17:43;;;;;;;;;9.00;6.00;;;;;24.74;56.33;100680.66;5091927;27;45258;-72
2023/08/24 04:20:09;;;;;;;;;8.50;8.00;;;;;24.77;56.44;100676.84;5078515;27;45657;-72
2023/08/24 04:22:34;;;;;;;;;8.25;7.25;;;;;24.77;56.41;100675.03;5085373;27;45278;-72
2023/08/24 04:25:00;;;;;;;;;8.75;5.75;;;;;24.79;56.13;100667.72;5087248;27;45506;-72
2023/08/24 04:27:25;;;;;;;;;9.50;9.50;;;;;24.79;56.18;100673.06;5082935;27;45351;-72
2023/08/24 04:29:50;;;;;;;;;8.50;7.75;;;;;24.80;55.72;100677.41;5093622;27;45342;-72
2023/08/24 04:32:16;;;;;;;;;10.75;7.75;;;;;24.81;55.94;100668.44;5086103;27;53386;-72
2023/08/24 04:34:41;;;;;;;;;7.50;6.00;;;;;24.81;55.60;100663.06;5080101;27;45536;-72
2023/08/24 04:37:07;;;;;;;;;8.75;8.25;;;;;24.81;55.76;100663.06;5089258;27;45236;-72
2023/08/24 04:39:32;;;;;;;;;7.00;7.00;;;;;24.80;56.21;100658.69;5094971;27;45362;-72
2023/08/24 04:41:58;;;;;;;;;7.75;6.25;;;;;24.81;55.55;100649.69;5081473;27;45905;-72
2023/08/24 04:44:24;;;;;;;;;8.00;8.00;;;;;24.82;55.58;100653.19;5092169;27;45911;-71
2023/08/24 04:46:49;;;;;;;;;6.75;6.00;;;;;24.80;55.69;100645.31;5082842;27;45456;-71
2023/08/24 04:49:15;;;;;;;;;9.25;7.75;;;;;24.81;55.62;100638.16;5085712;27;61777;-71
2023/08/24 04:51:40;;;;;;;;;11.00;6.75;;;;;24.81;55.39;100643.50;5080023;27;65405;-72
2023/08/24 04:54:05;;;;;;;;;10.25;8.75;;;;;24.81;55.51;100647.00;5083534;27;46071;-71
2023/08/24 04:56:31;;;;;;;;;10.75;8.75;;;;;24.79;55.44;100638.28;5081251;27;59639;-70
2023/08/24 04:58:57;;;;;;;;;8.75;7.00;;;;;24.82;55.36;100632.66;5093454;27;45423;-71
2023/08/24 05:01:26;;;;;;;;;9.50;6.75;;;;;24.81;55.47;100627.44;5095062;27;45480;-71
2023/08/24 05:03:52;;;;;;;;;9.50;8.00;;;;;24.79;55.56;100632.09;5084290;27;46186;-71
2023/08/24 05:06:18;;;;;;;;;7.25;7.25;;;;;24.80;55.25;100634.59;5091365;27;45593;-71
2023/08/24 05:08:43;;;;;;;;;8.50;6.00;;;;;24.83;55.29;100638.84;5098447;27;45349;-71
2023/08/24 05:11:19;;;;;;;;;9.00;8.00;;;;;24.79;55.42;100642.78;5087832;27;59002;-70
2023/08/24 05:13:44;;;;;;;;;8.50;8.50;;;;;24.81;55.28;100640.81;5083938;27;45570;-72
2023/08/24 05:16:10;;;;;;;;;5.50;5.25;;;;;24.79;55.25;100637.44;5080816;27;45323;-71
2023/08/24 05:18:36;;;;;;;;;10.00;8.00;;;;;24.80;55.30;100645.31;5079715;27;45443;-71
2023/08/24 05:21:03;;;;;;;;;7.00;7.00;;;;;24.79;55.28;100645.47;5083975;27;45342;-71
2023/08/24 05:23:28;;;;;;;;;9.25;7.50;;;;;24.80;55.39;100653.34;5089431;27;45342;-71
2023/08/24 05:25:54;;;;;;;;;10.00;9.00;;;;;24.80;55.30;100653.34;5095176;27;45328;-70
2023/08/24 05:28:19;;;;;;;;;9.25;8.25;;;;;24.81;55.25;100654.19;5078643;27;68455;-71
2023/08/24 05:30:44;;;;;;;;;11.00;9.00;;;;;24.81;55.40;100646.16;5094102;27;45465;-71
2023/08/24 05:33:10;;;;;;;;;8.50;7.00;;;;;24.83;55.13;100642.38;5092862;27;76284;-70
2023/08/24 05:35:35;;;;;;;;;11.25;8.75;;;;;24.87;55.07;100655.47;5088175;27;61761;-71
2023/08/24 05:38:00;;;;;;;;;9.25;7.25;;;;;24.87;54.96;100650.97;5091644;27;45397;-71
2023/08/24 05:40:26;;;;;;;;;7.50;6.50;;;;;24.89;54.86;100648.16;5084163;27;45387;-69
2023/08/24 05:42:51;;;;;;;;;11.00;6.50;;;;;24.95;54.37;100645.78;5092272;27;70054;-70
2023/08/24 05:45:17;;;;;;;;;10.00;7.75;;;;;24.99;54.70;100638.31;5093006;27;45369;-69
2023/08/24 05:47:42;;;;;;;;;7.50;7.50;;;;;25.02;54.53;100635.38;5088577;27;45439;-70
2023/08/24 05:50:08;;;;;;;;;10.00;9.00;;;;;25.10;54.37;100635.53;5092446;27;59953;-71
2023/08/24 05:52:33;;;;;;;;;7.25;7.25;;;;;25.17;54.44;100633.97;5085441;27;46546;-70
2023/08/24 05:54:58;;;;;;;;;11.50;9.00;;;;;25.26;54.37;100616.25;5081964;27;64644;-70
2023/08/24 05:57:24;;;;;;;;;10.00;8.00;;;;;25.35;53.96;100611.91;5091795;27;45310;-69
2023/08/24 05:59:49;;;;;;;;;10.25;10.00;;;;;25.42;53.65;100606.84;5097671;27;66306;-70
2023/08/24 06:02:14;;;;;;;;;8.25;7.25;;;;;25.47;53.43;100601.91;5094495;27;54108;-70
2023/08/24 06:04:40;;;;;;;;;0.50;0.25;;;;;25.49;53.56;100603.44;5077153;27;47044;-69
2023/08/24 06:07:06;;;;;;;;;8.50;7.75;;;;;25.55;53.44;100607.38;5094489;27;45444;-69
2023/08/24 06:09:31;;;;;;;;;9.25;8.00;;;;;25.59;52.97;100614.16;5084763;27;45568;-69
2023/08/24 06:11:57;;;;;;;;;11.00;8.25;;;;;25.63;53.26;100623.59;5099828;27;46407;-71
2023/08/24 06:14:22;;;;;;;;;10.25;8.00;;;;;25.63;52.80;100620.91;5069155;27;73638;-71
2023/08/24 06:16:48;;;;;;;;;12.00;9.00;;;;;25.66;52.99;100619.81;5100226;27;45445;-71
2023/08/24 06:19:14;;;;;;;;;8.00;8.00;;;;;25.68;52.88;100624.03;5089828;27;46338;-72
2023/08/24 06:21:39;;;;;;;;;7.00;7.00;;;;;25.69;52.83;100620.38;5086064;27;46284;-71
2023/08/24 06:24:04;;;;;;;;;10.25;9.25;;;;;25.70;52.79;100624.72;5089979;27;52647;-72
2023/08/24 06:26:30;;;;;;;;;12.50;9.00;;;;;25.71;52.67;100639.81;5092264;27;45407;-70
2023/08/24 06:28:55;;;;;;;;;10.00;9.00;;;;;25.71;52.37;100641.63;5096902;27;50635;-69
2023/08/24 06:31:21;;;;;;;;;11.00;8.25;;;;;25.71;52.63;100641.63;5089109;27;47177;-71
2023/08/24 06:33:46;;;;;;;;;9.75;7.25;;;;;25.74;52.88;100636.00;5097292;27;65314;-72
2023/08/24 06:36:12;;;;;;;;;10.00;9.00;;;;;25.74;52.15;100634.16;5090143;27;45431;-70
2023/08/24 06:38:37;;;;;;;;;9.50;8.50;;;;;25.79;52.68;100624.88;5096304;27;45429;-72
2023/08/24 06:41:02;;;;;;;;;10.00;9.25;;;;;25.80;52.14;100621.19;5100704;27;57132;-74
2023/08/24 06:43:28;;;;;;;;;13.25;9.25;;;;;25.84;52.50;100623.44;5090793;27;45439;-72
2023/08/24 06:45:56;;;;;;;;;11.50;9.25;;;;;25.87;52.20;100619.63;5083078;27;45457;-71
2023/08/24 06:48:22;;;;;;;;;8.75;7.25;;;;;25.89;51.84;100614.97;5086388;27;45524;-72
2023/08/24 06:50:47;;;;;;;;;8.75;7.00;;;;;25.92;51.54;100606.63;5074760;27;46709;-72
2023/08/24 06:53:14;;;;;;;;;9.00;8.00;;;;;25.98;52.00;100607.94;5087457;27;45414;-72
2023/08/24 06:55:40;;;;;;;;;8.75;8.00;;;;;26.04;51.83;100618.91;5087869;27;45349;-69
2023/08/24 06:58:05;;;;;;;;;8.00;8.00;;;;;26.09;51.54;100623.84;5086281;27;46795;-74
2023/08/24 07:00:31;;;;;;;;;9.00;7.50;;;;;26.13;51.44;100619.88;5081513;27;45590;-74
2023/08/24 07:02:57;;;;;;;;;11.75;8.00;;;;;26.19;51.80;100615.75;5081588;27;45405;-73
2023/08/24 07:05:23;;;;;;;;;9.00;8.50;;;;;26.27;51.48;100623.94;5097426;27;45350;-71
2023/08/24 07:07:51;;;;;;;;;10.25;9.25;;;;;26.32;51.51;100625.19;5089348;27;45538;-70
2023/08/24 07:10:17;;;;;;;;;9.25;9.25;;;;;26.34;50.91;100619.66;5094813;27;46799;-70
2023/08/24 07:12:44;;;;;;;;;11.00;7.75;;;;;26.40;51.19;100624.47;5098061;27;45265;-70
2023/08/24 07:15:11;;;;;;;;;10.00;9.75;;;;;26.45;51.23;100626.69;5087993;27;45229;-69
2023/08/24 07:17:36;;;;;;;;;13.50;9.25;;;;;26.46;51.11;100613.13;5098217;27;45425;-72
2023/08/24 07:20:05;;;;;;;;;15.25;9.75;;;;;26.56;50.95;100615.78;5087282;27;47728;-70
2023/08/24 07:22:30;;;;;;;;;10.00;9.25;;;;;26.66;50.66;100608.53;5107869;27;45529;-71
2023/08/24 07:24:56;;;;;;;;;13.00;9.00;;;;;26.73;50.81;100613.31;5087098;27;45452;-68
2023/08/24 07:27:21;;;;;;;;;11.75;11.00;;;;;26.84;50.66;100608.59;5093467;27;63068;-72
2023/08/24 07:29:47;;;;;;;;;11.50;9.50;;;;;26.95;50.54;100596.81;5092912;27;46017;-73
2023/08/24 07:32:12;;;;;;;;;12.25;9.00;;;;;27.06;50.14;100598.41;5089645;27;45296;-72
2023/08/24 07:34:38;;;;;;;;;10.00;9.00;;;;;27.15;49.84;100593.97;5081303;27;45457;-74
2023/08/24 07:37:03;;;;;;;;;12.00;10.00;;;;;27.17;49.46;100584.75;5094881;27;45174;-73
2023/08/24 07:39:29;;;;;;;;;8.00;8.00;;;;;27.16;49.74;100585.78;5098649;27;46907;-73
2023/08/24 07:41:57;;;;;;;;;11.50;8.75;;;;;27.16;49.82;100585.78;5076303;28;45544;-72
2023/08/24 07:44:23;;;;;;;;;10.00;10.00;;;;;27.12;49.40;100570.09;5095096;27;45348;-72
2023/08/24 07:46:49;;;;;;;;;10.50;10.00;;;;;27.09;49.17;100579.28;5080843;27;54323;-73
2023/08/24 07:49:14;;;;;;;;;11.00;10.00;;;;;27.04;49.76;100590.50;5092209;27;45413;-73
2023/08/24 07:51:39;;;;;;;;;12.00;8.75;;;;;27.02;49.46;100581.75;5085986;27;45428;-74
2023/08/24 07:54:08;;;;;;;;;12.75;9.00;;;;;26.97;49.50;100577.81;5087061;27;45296;-73
2023/08/24 07:56:33;;;;;;;;;7.00;7.00;;;;;27.00;49.92;100573.03;5084072;27;45287;-73
2023/08/24 07:58:59;;;;;;;;;10.50;8.00;;;;;27.02;49.32;100554.91;5099621;27;46506;-73
2023/08/24 08:01:24;;;;;;;;;11.25;9.00;;;;;27.05;49.41;100559.94;5092409;27;45499;-74
2023/08/24 08:03:50;;;;;;;;;9.25;9.25;;;;;27.06;49.76;100555.44;5087408;27;45596;-72
2023/08/24 08:06:15;;;;;;;;;9.25;8.75;;;;;27.05;49.44;100554.56;5087420;27;45447;-73
2023/08/24 08:08:40;;;;;;;;;9.50;8.75;;;;;27.10;49.24;100556.81;5091200;27;45964;-74
2023/08/24 08:11:06;;;;;;;;;12.50;10.00;;;;;27.12;49.67;100553.97;5090280;27;60807;-72
2023/08/24 08:13:31;;;;;;;;;7.50;7.00;;;;;27.16;49.63;100561.59;5085915;27;45875;-73
2023/08/24 08:16:03;;;;;;;;;9.25;7.75;;;;;27.25;49.23;100590.22;5096984;27;59397;-74
2023/08/24 08:18:29;;;;;;;;;9.75;9.00;;;;;27.32;48.85;100617.34;5099489;27;45510;-73
2023/08/24 08:20:54;;;;;;;;;10.25;8.00;;;;;27.35;48.12;100616.19;5099371;27;45521;-73
2023/08/24 08:23:20;;;;;;;;;7.75;7.50;;;;;27.38;48.32;100615.88;5099810;27;58403;-73
2023/08/24 08:25:45;;;;;;;;;8.75;7.50;;;;;27.42;48.54;100598.44;5097703;27;45211;-73
2023/08/24 08:28:11;;;;;;;;;9.50;9.50;;;;;27.44;48.48;100577.63;5092878;27;59228;-73
2023/08/24 08:30:36;;;;;;;;;13.25;10.75;;;;;27.47;48.29;100574.66;5097576;27;45375;-73
2023/08/24 08:33:01;;;;;;;;;10.00;8.00;;;;;27.53;47.84;100586.59;5096807;27;55987;-73
2023/08/24 08:35:27;;;;;;;;;10.25;9.50;;;;;27.62;48.04;100596.41;5100479;27;45219;-73
2023/08/24 08:37:53;;;;;;;;;10.00;8.50;;;;;27.76;47.75;100603.09;5094768;27;49025;-72
2023/08/24 08:40:19;;;;;;;;;11.25;8.75;;;;;27.87;47.16;100613.59;5086709;27;45444;-73
2023/08/24 08:42:44;;;;;;;;;12.25;10.00;;;;;27.89;46.89;100608.91;5097216;27;45340;-73
2023/08/24 08:45:10;;;;;;;;;12.00;10.75;;;;;27.81;47.31;100600.78;5096564;27;55768;-74
2023/08/24 08:47:36;;;;;;;;;11.00;9.25;;;;;27.90;47.24;100621.34;5084181;27;47213;-73
2023/08/24 08:50:03;;;;;;;;;12.75;10.25;;;;;27.96;47.33;100619.88;5093217;27;45336;-73
2023/08/24 08:52:36;;;;;;;;;11.00;10.00;;;;;28.04;46.63;100611.88;5099320;27;45235;-73
2023/08/24 08:55:06;;;;;;;;;10.75;9.00;;;;;28.08;47.00;100620.47;5097684;27;45468;-72
2023/08/24 08:57:31;;;;;;;;;15.25;11.00;;;;;28.03;47.73;100635.25;5095144;27;46228;-74
2023/08/24 08:59:57;;;;;;;;;8.25;8.25;;;;;27.97;47.26;100633.19;5098282;27;68425;-73
2023/08/24 09:02:23;;;;;;;;;9.25;9.00;;;;;27.94;47.58;100625.47;5087377;27;45310;-73
2023/08/24 09:04:51;;;;;;;;;13.50;11.00;;;;;27.96;47.51;100626.13;5086147;27;45291;-73
2023/08/24 09:07:16;;;;;;;;;12.75;10.00;;;;;27.98;47.93;100620.59;5095691;27;45333;-73
2023/08/24 09:09:42;;;;;;;;;12.00;9.00;;;;;28.02;47.91;100603.13;5088768;27;67544;-73
2023/08/24 09:12:08;;;;;;;;;11.00;9.00;;;;;27.96;47.76;100596.53;5086873;27;45293;-73
2023/08/24 09:14:34;;;;;;;;;11.00;9.00;;;;;27.93;47.75;100579.88;5095831;27;45351;-73
2023/08/24 09:16:59;;;;;;;;;11.50;9.75;;;;;27.91;47.55;100558.53;5098231;27;73059;-73
2023/08/24 09:19:29;;;;;;;;;14.50;10.00;;;;;27.91;47.62;100555.00;5087186;27;70133;-73
2023/08/24 09:21:57;;;;;;;;;9.50;9.50;;;;;27.94;47.94;100566.28;5088937;27;45586;-72
2023/08/24 09:24:29;;;;;;;;;20.25;14.50;;;;;28.01;47.40;100579.91;5084991;27;45408;-74
2023/08/24 09:26:55;;;;;;;;;15.00;13.75;;;;;28.03;47.85;100594.91;5097154;27;45804;-73
2023/08/24 09:29:21;;;;;;;;;10.75;8.25;;;;;28.05;47.35;100602.81;5086159;27;67286;-73
2023/08/24 09:31:46;;;;;;;;;19.00;15.75;;;;;28.04;47.44;100598.44;5089812;27;45475;-74
2023/08/24 09:34:12;;;;;;;;;12.50;11.00;;;;;28.04;47.37;100603.81;5078417;27;45781;-73
2023/08/24 09:36:39;;;;;;;;;12.75;9.50;;;;;27.99;47.89;100627.66;5093678;27;46202;-72
2023/08/24 09:39:04;;;;;;;;;14.00;10.50;;;;;27.95;47.29;100640.56;5097353;27;45307;-72
2023/08/24 09:41:40;;;;;;;;;12.50;9.00;;;;;27.95;47.59;100645.94;5099226;27;45511;-72
2023/08/24 09:44:06;;;;;;;;;8.50;6.75;;;;;28.02;47.61;100638.94;5082909;27;45231;-72
2023/08/24 09:46:31;;;;;;;;;10.25;7.50;;;;;28.09;47.77;100641.84;5101068;27;45445;-72
2023/08/24 09:49:00;;;;;;;;;10.75;9.25;;;;;28.13;46.86;100631.63;5090553;27;51053;-73
2023/08/24 09:51:26;;;;;;;;;9.50;8.50;;;;;28.15;47.73;100641.19;5098503;27;45293;-72
2023/08/24 09:53:53;;;;;;;;;7.75;7.75;;;;;28.19;46.42;100641.75;5097265;27;45486;-73
2023/08/24 09:56:19;;;;;;;;;7.00;7.00;;;;;28.23;47.35;100653.06;5092485;27;46312;-72
2023/08/24 09:58:46;;;;;;;;;8.00;8.00;;;;;28.27;46.99;100659.78;5081061;27;45739;-73
2023/08/24 10:01:11;;;;;;;;;9.50;9.00;;;;;28.24;46.77;100654.72;5084895;27;56422;-72
2023/08/24 10:03:40;;;;;;;;;9.75;8.50;;;;;28.19;46.61;100650.66;5090580;27;45228;-73
2023/08/24 10:06:08;;;;;;;;;11.25;10.00;;;;;28.08;47.01;100658.16;5098627;27;46193;-73
2023/08/24 10:08:37;;;;;;;;;14.50;11.00;;;;;27.96;46.79;100657.53;5091288;27;49993;-73
2023/08/24 10:11:03;;;;;;;;;10.50;7.25;;;;;27.92;47.10;100669.63;5101875;27;45307;-72
2023/08/24 10:13:45;;;;;;;;;11.25;10.25;;;;;27.89;47.03;100656.47;5103761;27;57747;-73
2023/08/24 10:16:12;;;;;;;;;11.00;9.25;;;;;27.87;47.61;100634.25;5096710;27;45448;-73
2023/08/24 10:18:39;;;;;;;;;11.00;10.00;;;;;27.83;47.43;100626.53;5092304;27;45813;-73
2023/08/24 10:21:05;;;;;;;;;8.00;8.00;;;;;27.84;47.40;100628.19;5095085;27;45459;-73
2023/08/24 10:23:31;;;;;;;;;11.00;8.25;;;;;27.87;47.76;100618.13;5092222;27;45487;-73
2023/08/24 10:25:56;;;;;;;;;8.75;8.00;;;;;27.91;47.73;100614.16;5102223;27;63296;-72
2023/08/24 10:28:25;;;;;;;;;19.50;18.50;;;;;27.93;47.51;100614.84;5099353;27;45444;-73
2023/08/24 10:30:51;;;;;;;;;8.25;8.25;;;;;27.97;46.67;100605.44;5097476;27;45274;-73
2023/08/24 10:33:17;;;;;;;;;8.00;8.00;;;;;28.02;47.61;100613.91;5083632;27;45208;-73
2023/08/24 10:35:43;;;;;;;;;13.25;8.25;;;;;28.05;47.29;100624.34;5101189;27;46131;-72
2023/08/24 10:38:22;;;;;;;;;8.75;8.75;;;;;28.13;47.43;100635.13;5084512;27;45312;-73
2023/08/24 10:40:48;;;;;;;;;14.00;11.25;;;;;28.23;46.95;100647.66;5100726;27;45301;-73
2023/08/24 10:43:13;;;;;;;;;11.25;8.00;;;;;28.33;46.41;100649.25;5087789;27;70424;-73
2023/08/24 10:45:59;;;;;;;;;14.00;10.75;;;;;28.36;46.71;100677.66;5098474;27;46798;-74
2023/08/24 10:48:25;;;;;;;;;11.00;10.50;;;;;28.29;46.91;100693.59;5099132;27;45164;-73
2023/08/24 10:51:17;;;;;;;;;8.50;8.50;;;;;28.21;47.02;100705.16;5091691;27;45320;-73
2023/08/24 10:53:56;;;;;;;;;11.00;9.75;;;;;28.12;46.15;100713.31;5094180;27;45350;-73
2023/08/24 10:56:29;;;;;;;;;11.25;7.50;;;;;28.00;46.59;100708.19;5087525;27;45323;-73
2023/08/24 10:59:15;;;;;;;;;11.00;11.00;;;;;27.94;46.95;100707.97;5086097;27;46054;-74
2023/08/24 11:01:54;;;;;;;;;13.00;9.25;;;;;27.86;46.91;100713.28;5095673;27;45310;-72
2023/08/24 11:04:19;;;;;;;;;13.75;11.50;;;;;27.75;47.04;100712.50;5094367;27;45347;-73
2023/08/24 11:06:55;;;;;;;;;14.00;13.25;;;;;27.63;47.36;100708.34;5094421;27;50513;-73
2023/08/24 11:09:22;;;;;;;;;13.25;11.50;;;;;27.51;47.00;100709.56;5092799;27;45370;-73
2023/08/24 11:12:03;;;;;;;;;12.75;10.00;;;;;27.37;47.82;100697.50;5088513;27;45383;-73
2023/08/24 11:14:29;;;;;;;;;9.50;8.00;;;;;27.31;47.97;100687.38;5097852;27;45607;-73
2023/08/24 11:16:58;;;;;;;;;9.00;7.75;;;;;27.20;48.13;100681.19;5086848;27;47057;-73